sensor_id;sensor_type;location;lat;lon;timestamp;P1;durP1;ratioP1;P2;durP2;ratioP2
44438;SDS011;30145;48.874;10.186;2022-09-01T00:00:04;15.87;;;14.00;;
44438;SDS011;30145;48.874;10.186;2022-09-01T00:02:39;18.23;;;14.97;;
44438;SDS011;30145;48.874;10.186;2022-09-01T00:05:06;18.07;;;14.70;;
44438;SDS011;30145;48.874;10.186;2022-09-01T00:07:33;17.77;;;15.87;;
44438;SDS011;30145;48.874;10.186;2022-09-01T00:10:02;18.77;;;15.73;;
44438;SDS011;30145;48.874;10.186;2022-09-01T00:12:31;18.47;;;16.40;;
44438;SDS011;30145;48.874;10.186;2022-09-01T00:14:58;19.77;;;16.93;;
44438;SDS011;30145;48.874;10.186;2022-09-01T00:17:25;17.97;;;15.17;;
44438;SDS011;30145;48.874;10.186;2022-09-01T00:19:53;16.83;;;15.00;;
44438;SDS011;30145;48.874;10.186;2022-09-01T00:22:20;20.50;;;16.93;;
44438;SDS011;30145;48.874;10.186;2022-09-01T00:24:47;19.50;;;16.67;;
44438;SDS011;30145;48.874;10.186;2022-09-01T00:27:14;21.07;;;17.03;;
44438;SDS011;30145;48.874;10.186;2022-09-01T00:29:41;24.37;;;18.27;;
44438;SDS011;30145;48.874;10.186;2022-09-01T00:32:09;24.57;;;19.60;;
44438;SDS011;30145;48.874;10.186;2022-09-01T00:34:37;23.10;;;17.73;;
44438;SDS011;30145;48.874;10.186;2022-09-01T00:37:05;23.70;;;19.87;;
44438;SDS011;30145;48.874;10.186;2022-09-01T00:39:32;25.27;;;19.20;;
44438;SDS011;30145;48.874;10.186;2022-09-01T00:41:59;24.70;;;18.77;;
44438;SDS011;30145;48.874;10.186;2022-09-01T00:44:27;24.13;;;19.03;;
44438;SDS011;30145;48.874;10.186;2022-09-01T00:46:55;23.63;;;19.20;;
44438;SDS011;30145;48.874;10.186;2022-09-01T00:52:00;26.73;;;20.53;;
44438;SDS011;30145;48.874;10.186;2022-09-01T00:54:31;24.90;;;20.63;;
44438;SDS011;30145;48.874;10.186;2022-09-01T00:57:02;26.97;;;20.53;;
44438;SDS011;30145;48.874;10.186;2022-09-01T00:59:29;26.37;;;19.80;;
44438;SDS011;30145;48.874;10.186;2022-09-01T01:01:57;25.77;;;20.53;;
44438;SDS011;30145;48.874;10.186;2022-09-01T01:04:25;27.43;;;20.97;;
44438;SDS011;30145;48.874;10.186;2022-09-01T01:06:53;29.03;;;21.80;;
44438;SDS011;30145;48.874;10.186;2022-09-01T01:09:28;26.27;;;21.27;;
44438;SDS011;30145;48.874;10.186;2022-09-01T01:11:58;25.27;;;21.03;;
44438;SDS011;30145;48.874;10.186;2022-09-01T01:14:26;24.53;;;19.53;;
44438;SDS011;30145;48.874;10.186;2022-09-01T01:16:58;23.73;;;19.30;;
44438;SDS011;30145;48.874;10.186;2022-09-01T01:19:36;24.20;;;18.90;;
44438;SDS011;30145;48.874;10.186;2022-09-01T01:25:22;23.60;;;19.90;;
44438;SDS011;30145;48.874;10.186;2022-09-01T01:27:49;22.73;;;19.43;;
44438;SDS011;30145;48.874;10.186;2022-09-01T01:30:17;27.53;;;20.57;;
44438;SDS011;30145;48.874;10.186;2022-09-01T01:32:46;24.03;;;20.03;;
44438;SDS011;30145;48.874;10.186;2022-09-01T01:35:14;27.57;;;21.03;;
44438;SDS011;30145;48.874;10.186;2022-09-01T01:37:43;28.83;;;22.00;;
44438;SDS011;30145;48.874;10.186;2022-09-01T01:40:13;27.90;;;21.50;;
44438;SDS011;30145;48.874;10.186;2022-09-01T01:42:44;27.87;;;22.50;;
44438;SDS011;30145;48.874;10.186;2022-09-01T01:45:14;28.10;;;22.43;;
44438;SDS011;30145;48.874;10.186;2022-09-01T01:47:43;29.60;;;22.27;;
44438;SDS011;30145;48.874;10.186;2022-09-01T01:50:28;25.07;;;20.00;;
44438;SDS011;30145;48.874;10.186;2022-09-01T01:53:01;26.80;;;19.33;;
44438;SDS011;30145;48.874;10.186;2022-09-01T01:55:31;24.60;;;19.00;;
44438;SDS011;30145;48.874;10.186;2022-09-01T01:57:58;23.67;;;18.53;;
44438;SDS011;30145;48.874;10.186;2022-09-01T02:00:27;23.27;;;18.93;;
44438;SDS011;30145;48.874;10.186;2022-09-01T02:02:57;24.07;;;17.97;;
44438;SDS011;30145;48.874;10.186;2022-09-01T02:05:29;23.43;;;18.17;;
44438;SDS011;30145;48.874;10.186;2022-09-01T02:07:59;24.13;;;18.27;;
44438;SDS011;30145;48.874;10.186;2022-09-01T02:10:37;23.03;;;18.40;;
44438;SDS011;30145;48.874;10.186;2022-09-01T02:13:08;24.77;;;18.63;;
44438;SDS011;30145;48.874;10.186;2022-09-01T02:15:46;23.17;;;17.53;;
44438;SDS011;30145;48.874;10.186;2022-09-01T02:18:17;23.33;;;19.27;;
44438;SDS011;30145;48.874;10.186;2022-09-01T02:20:47;24.50;;;18.33;;
44438;SDS011;30145;48.874;10.186;2022-09-01T02:23:16;23.90;;;18.97;;
44438;SDS011;30145;48.874;10.186;2022-09-01T02:25:50;21.13;;;17.53;;
44438;SDS011;30145;48.874;10.186;2022-09-01T02:28:39;24.17;;;18.50;;
44438;SDS011;30145;48.874;10.186;2022-09-01T02:31:09;24.43;;;18.37;;
44438;SDS011;30145;48.874;10.186;2022-09-01T02:33:37;24.00;;;18.87;;
44438;SDS011;30145;48.874;10.186;2022-09-01T02:36:10;21.23;;;17.77;;
44438;SDS011;30145;48.874;10.186;2022-09-01T02:38:40;23.03;;;18.77;;
44438;SDS011;30145;48.874;10.186;2022-09-01T02:41:10;22.63;;;18.10;;
44438;SDS011;30145;48.874;10.186;2022-09-01T02:43:38;21.07;;;18.00;;
44438;SDS011;30145;48.874;10.186;2022-09-01T02:46:06;21.83;;;18.10;;
44438;SDS011;30145;48.874;10.186;2022-09-01T02:48:35;22.93;;;18.63;;
44438;SDS011;30145;48.874;10.186;2022-09-01T02:51:05;24.53;;;19.23;;
44438;SDS011;30145;48.874;10.186;2022-09-01T02:53:40;21.97;;;18.30;;
44438;SDS011;30145;48.874;10.186;2022-09-01T02:56:09;19.73;;;17.47;;
44438;SDS011;30145;48.874;10.186;2022-09-01T02:58:41;22.57;;;19.27;;
44438;SDS011;30145;48.874;10.186;2022-09-01T03:01:15;21.83;;;17.60;;
44438;SDS011;30145;48.874;10.186;2022-09-01T03:03:47;22.17;;;18.33;;
44438;SDS011;30145;48.874;10.186;2022-09-01T03:06:14;23.70;;;19.80;;
44438;SDS011;30145;48.874;10.186;2022-09-01T03:08:44;23.60;;;19.20;;
44438;SDS011;30145;48.874;10.186;2022-09-01T03:11:11;22.67;;;18.37;;
44438;SDS011;30145;48.874;10.186;2022-09-01T03:13:39;25.73;;;19.60;;
44438;SDS011;30145;48.874;10.186;2022-09-01T03:16:07;27.40;;;20.77;;
44438;SDS011;30145;48.874;10.186;2022-09-01T03:18:34;26.07;;;19.90;;
44438;SDS011;30145;48.874;10.186;2022-09-01T03:21:01;25.33;;;19.90;;
44438;SDS011;30145;48.874;10.186;2022-09-01T03:23:29;26.83;;;21.37;;
44438;SDS011;30145;48.874;10.186;2022-09-01T03:25:56;26.30;;;20.13;;
44438;SDS011;30145;48.874;10.186;2022-09-01T03:28:24;27.13;;;19.97;;
44438;SDS011;30145;48.874;10.186;2022-09-01T03:30:51;24.17;;;19.47;;
44438;SDS011;30145;48.874;10.186;2022-09-01T03:33:20;25.37;;;19.40;;
44438;SDS011;30145;48.874;10.186;2022-09-01T03:35:48;21.97;;;17.43;;
44438;SDS011;30145;48.874;10.186;2022-09-01T03:38:15;22.23;;;16.87;;
44438;SDS011;30145;48.874;10.186;2022-09-01T03:40:46;24.40;;;19.03;;
44438;SDS011;30145;48.874;10.186;2022-09-01T03:43:15;24.27;;;18.23;;
44438;SDS011;30145;48.874;10.186;2022-09-01T03:45:43;23.20;;;18.17;;
44438;SDS011;30145;48.874;10.186;2022-09-01T03:48:11;22.43;;;17.73;;
44438;SDS011;30145;48.874;10.186;2022-09-01T03:50:42;24.00;;;18.13;;
44438;SDS011;30145;48.874;10.186;2022-09-01T03:53:14;22.93;;;18.00;;
44438;SDS011;30145;48.874;10.186;2022-09-01T03:55:44;24.00;;;18.83;;
44438;SDS011;30145;48.874;10.186;2022-09-01T03:58:15;25.47;;;19.23;;
44438;SDS011;30145;48.874;10.186;2022-09-01T04:00:46;25.20;;;19.03;;
44438;SDS011;30145;48.874;10.186;2022-09-01T04:03:15;21.67;;;17.17;;
44438;SDS011;30145;48.874;10.186;2022-09-01T04:05:47;21.07;;;16.53;;
44438;SDS011;30145;48.874;10.186;2022-09-01T04:08:17;20.10;;;17.43;;
44438;SDS011;30145;48.874;10.186;2022-09-01T04:10:49;22.27;;;17.97;;
44438;SDS011;30145;48.874;10.186;2022-09-01T04:13:21;20.60;;;17.60;;
44438;SDS011;30145;48.874;10.186;2022-09-01T04:15:53;22.13;;;18.53;;
44438;SDS011;30145;48.874;10.186;2022-09-01T04:18:22;21.53;;;17.07;;
44438;SDS011;30145;48.874;10.186;2022-09-01T04:20:51;20.37;;;16.90;;
44438;SDS011;30145;48.874;10.186;2022-09-01T04:25:56;18.73;;;15.90;;
44438;SDS011;30145;48.874;10.186;2022-09-01T04:28:30;20.20;;;16.23;;
44438;SDS011;30145;48.874;10.186;2022-09-01T04:31:01;19.97;;;15.70;;
44438;SDS011;30145;48.874;10.186;2022-09-01T04:33:32;18.50;;;15.13;;
44438;SDS011;30145;48.874;10.186;2022-09-01T04:36:11;16.03;;;14.33;;
44438;SDS011;30145;48.874;10.186;2022-09-01T04:38:40;17.70;;;14.47;;
44438;SDS011;30145;48.874;10.186;2022-09-01T04:41:07;17.50;;;14.83;;
44438;SDS011;30145;48.874;10.186;2022-09-01T04:43:35;20.80;;;16.17;;
44438;SDS011;30145;48.874;10.186;2022-09-01T04:46:02;20.10;;;16.80;;
44438;SDS011;30145;48.874;10.186;2022-09-01T04:48:29;19.60;;;15.90;;
44438;SDS011;30145;48.874;10.186;2022-09-01T04:50:57;20.07;;;16.43;;
44438;SDS011;30145;48.874;10.186;2022-09-01T04:53:24;18.73;;;16.57;;
44438;SDS011;30145;48.874;10.186;2022-09-01T04:55:51;19.90;;;16.73;;
44438;SDS011;30145;48.874;10.186;2022-09-01T04:58:20;18.67;;;16.57;;
44438;SDS011;30145;48.874;10.186;2022-09-01T05:00:48;19.33;;;17.23;;
44438;SDS011;30145;48.874;10.186;2022-09-01T05:03:21;21.20;;;18.63;;
44438;SDS011;30145;48.874;10.186;2022-09-01T05:05:52;22.83;;;17.73;;
44438;SDS011;30145;48.874;10.186;2022-09-01T05:08:26;23.37;;;20.07;;
44438;SDS011;30145;48.874;10.186;2022-09-01T05:10:54;25.10;;;20.93;;
44438;SDS011;30145;48.874;10.186;2022-09-01T05:13:22;27.40;;;22.70;;
44438;SDS011;30145;48.874;10.186;2022-09-01T05:15:58;27.93;;;23.37;;
44438;SDS011;30145;48.874;10.186;2022-09-01T05:18:27;26.53;;;21.20;;
44438;SDS011;30145;48.874;10.186;2022-09-01T05:20:56;25.97;;;21.10;;
44438;SDS011;30145;48.874;10.186;2022-09-01T05:23:24;26.60;;;21.77;;
44438;SDS011;30145;48.874;10.186;2022-09-01T05:25:52;23.47;;;20.93;;
44438;SDS011;30145;48.874;10.186;2022-09-01T05:28:21;29.17;;;23.90;;
44438;SDS011;30145;48.874;10.186;2022-09-01T05:30:52;23.90;;;20.53;;
44438;SDS011;30145;48.874;10.186;2022-09-01T05:33:20;25.63;;;22.60;;
44438;SDS011;30145;48.874;10.186;2022-09-01T05:35:52;26.40;;;21.50;;
44438;SDS011;30145;48.874;10.186;2022-09-01T05:38:24;24.83;;;21.63;;
44438;SDS011;30145;48.874;10.186;2022-09-01T05:40:56;24.87;;;22.20;;
44438;SDS011;30145;48.874;10.186;2022-09-01T05:43:29;24.40;;;21.33;;
44438;SDS011;30145;48.874;10.186;2022-09-01T05:45:57;26.13;;;20.70;;
44438;SDS011;30145;48.874;10.186;2022-09-01T05:48:31;24.33;;;20.97;;
44438;SDS011;30145;48.874;10.186;2022-09-01T05:51:03;23.97;;;21.37;;
44438;SDS011;30145;48.874;10.186;2022-09-01T05:53:39;23.97;;;20.27;;
44438;SDS011;30145;48.874;10.186;2022-09-01T05:56:07;23.40;;;20.13;;
44438;SDS011;30145;48.874;10.186;2022-09-01T05:58:38;24.77;;;20.93;;
44438;SDS011;30145;48.874;10.186;2022-09-01T06:01:26;20.57;;;18.37;;
44438;SDS011;30145;48.874;10.186;2022-09-01T06:03:59;23.07;;;19.47;;
44438;SDS011;30145;48.874;10.186;2022-09-01T06:06:40;21.90;;;19.50;;
44438;SDS011;30145;48.874;10.186;2022-09-01T06:09:27;22.90;;;19.80;;
44438;SDS011;30145;48.874;10.186;2022-09-01T06:11:54;20.73;;;17.80;;
44438;SDS011;30145;48.874;10.186;2022-09-01T06:14:22;21.87;;;19.30;;
44438;SDS011;30145;48.874;10.186;2022-09-01T06:16:50;19.37;;;16.77;;
44438;SDS011;30145;48.874;10.186;2022-09-01T06:19:19;22.67;;;17.37;;
44438;SDS011;30145;48.874;10.186;2022-09-01T06:21:46;22.67;;;17.57;;
44438;SDS011;30145;48.874;10.186;2022-09-01T06:24:14;22.37;;;18.73;;
44438;SDS011;30145;48.874;10.186;2022-09-01T06:26:41;20.10;;;16.63;;
44438;SDS011;30145;48.874;10.186;2022-09-01T06:29:09;17.40;;;15.17;;
44438;SDS011;30145;48.874;10.186;2022-09-01T06:31:41;19.20;;;17.20;;
44438;SDS011;30145;48.874;10.186;2022-09-01T06:34:09;20.50;;;16.30;;
44438;SDS011;30145;48.874;10.186;2022-09-01T06:36:44;20.60;;;16.53;;
44438;SDS011;30145;48.874;10.186;2022-09-01T06:39:13;21.10;;;16.33;;
44438;SDS011;30145;48.874;10.186;2022-09-01T06:41:49;18.93;;;16.37;;
44438;SDS011;30145;48.874;10.186;2022-09-01T06:44:18;18.73;;;16.73;;
44438;SDS011;30145;48.874;10.186;2022-09-01T06:46:51;18.80;;;16.77;;
44438;SDS011;30145;48.874;10.186;2022-09-01T06:49:18;20.87;;;17.97;;
44438;SDS011;30145;48.874;10.186;2022-09-01T06:51:47;19.83;;;17.73;;
44438;SDS011;30145;48.874;10.186;2022-09-01T06:54:15;18.17;;;15.97;;
44438;SDS011;30145;48.874;10.186;2022-09-01T06:56:44;19.63;;;17.43;;
44438;SDS011;30145;48.874;10.186;2022-09-01T06:59:12;18.40;;;16.40;;
44438;SDS011;30145;48.874;10.186;2022-09-01T07:01:41;19.77;;;17.67;;
44438;SDS011;30145;48.874;10.186;2022-09-01T07:04:08;20.30;;;17.97;;
44438;SDS011;30145;48.874;10.186;2022-09-01T07:06:39;20.17;;;16.77;;
44438;SDS011;30145;48.874;10.186;2022-09-01T07:09:27;18.70;;;16.70;;
44438;SDS011;30145;48.874;10.186;2022-09-01T07:11:55;18.17;;;16.27;;
44438;SDS011;30145;48.874;10.186;2022-09-01T07:14:42;16.50;;;14.80;;
44438;SDS011;30145;48.874;10.186;2022-09-01T07:17:29;14.63;;;13.10;;
44438;SDS011;30145;48.874;10.186;2022-09-01T07:19:56;14.37;;;12.93;;
44438;SDS011;30145;48.874;10.186;2022-09-01T07:22:44;13.57;;;12.17;;
44438;SDS011;30145;48.874;10.186;2022-09-01T07:25:31;13.40;;;10.10;;
44438;SDS011;30145;48.874;10.186;2022-09-01T07:28:00;11.87;;;10.67;;
44438;SDS011;30145;48.874;10.186;2022-09-01T07:30:27;10.87;;;9.77;;
44438;SDS011;30145;48.874;10.186;2022-09-01T07:32:56;11.33;;;10.00;;
44438;SDS011;30145;48.874;10.186;2022-09-01T07:35:44;12.03;;;10.43;;
44438;SDS011;30145;48.874;10.186;2022-09-01T07:38:32;10.60;;;9.60;;
44438;SDS011;30145;48.874;10.186;2022-09-01T07:41:20;10.00;;;9.10;;
44438;SDS011;30145;48.874;10.186;2022-09-01T07:44:08;11.93;;;9.30;;
44438;SDS011;30145;48.874;10.186;2022-09-01T07:46:38;10.77;;;9.70;;
44438;SDS011;30145;48.874;10.186;2022-09-01T07:49:08;9.57;;;8.60;;
44438;SDS011;30145;48.874;10.186;2022-09-01T07:51:56;10.07;;;9.00;;
44438;SDS011;30145;48.874;10.186;2022-09-01T07:54:24;11.30;;;9.97;;
44438;SDS011;30145;48.874;10.186;2022-09-01T07:56:52;13.17;;;11.77;;
44438;SDS011;30145;48.874;10.186;2022-09-01T07:59:21;12.93;;;11.63;;
44438;SDS011;30145;48.874;10.186;2022-09-01T08:01:48;13.67;;;11.70;;
44438;SDS011;30145;48.874;10.186;2022-09-01T08:04:16;12.30;;;11.00;;
44438;SDS011;30145;48.874;10.186;2022-09-01T08:06:48;11.80;;;10.43;;
44438;SDS011;30145;48.874;10.186;2022-09-01T08:09:15;10.10;;;9.10;;
44438;SDS011;30145;48.874;10.186;2022-09-01T08:11:42;10.17;;;9.17;;
44438;SDS011;30145;48.874;10.186;2022-09-01T08:14:26;10.07;;;9.07;;
44438;SDS011;30145;48.874;10.186;2022-09-01T08:16:59;10.53;;;7.87;;
44438;SDS011;30145;48.874;10.186;2022-09-01T08:19:41;8.10;;;7.30;;
44438;SDS011;30145;48.874;10.186;2022-09-01T08:22:09;8.80;;;7.90;;
44438;SDS011;30145;48.874;10.186;2022-09-01T08:24:36;6.90;;;6.30;;
44438;SDS011;30145;48.874;10.186;2022-09-01T08:27:04;7.80;;;6.60;;
44438;SDS011;30145;48.874;10.186;2022-09-01T08:29:31;8.23;;;7.33;;
44438;SDS011;30145;48.874;10.186;2022-09-01T08:31:59;7.47;;;6.73;;
44438;SDS011;30145;48.874;10.186;2022-09-01T08:34:26;6.30;;;5.70;;
44438;SDS011;30145;48.874;10.186;2022-09-01T08:36:53;6.87;;;6.23;;
44438;SDS011;30145;48.874;10.186;2022-09-01T08:39:21;7.07;;;6.47;;
44438;SDS011;30145;48.874;10.186;2022-09-01T08:41:51;9.63;;;6.23;;
44438;SDS011;30145;48.874;10.186;2022-09-01T08:47:16;8.53;;;7.63;;
44438;SDS011;30145;48.874;10.186;2022-09-01T08:49:53;9.27;;;7.30;;
44438;SDS011;30145;48.874;10.186;2022-09-01T08:54:52;6.43;;;5.77;;
44438;SDS011;30145;48.874;10.186;2022-09-01T08:57:37;6.90;;;6.30;;
44438;SDS011;30145;48.874;10.186;2022-09-01T09:00:08;7.87;;;7.07;;
44438;SDS011;30145;48.874;10.186;2022-09-01T09:16:47;6.83;;;6.13;;
44438;SDS011;30145;48.874;10.186;2022-09-01T09:19:18;6.33;;;5.67;;
44438;SDS011;30145;48.874;10.186;2022-09-01T09:21:48;7.10;;;6.43;;
44438;SDS011;30145;48.874;10.186;2022-09-01T09:24:30;6.67;;;6.07;;
44438;SDS011;30145;48.874;10.186;2022-09-01T09:27:17;7.23;;;5.93;;
44438;SDS011;30145;48.874;10.186;2022-09-01T09:29:49;6.30;;;5.70;;
44438;SDS011;30145;48.874;10.186;2022-09-01T09:32:19;7.00;;;6.40;;
44438;SDS011;30145;48.874;10.186;2022-09-01T09:34:48;6.40;;;5.80;;
44438;SDS011;30145;48.874;10.186;2022-09-01T09:37:25;6.80;;;6.17;;
44438;SDS011;30145;48.874;10.186;2022-09-01T09:43:02;7.13;;;6.43;;
44438;SDS011;30145;48.874;10.186;2022-09-01T09:45:30;7.10;;;6.30;;
44438;SDS011;30145;48.874;10.186;2022-09-01T09:48:05;6.60;;;5.97;;
44438;SDS011;30145;48.874;10.186;2022-09-01T09:50:36;7.07;;;6.00;;
44438;SDS011;30145;48.874;10.186;2022-09-01T09:53:13;7.53;;;6.80;;
44438;SDS011;30145;48.874;10.186;2022-09-01T09:56:02;6.03;;;5.40;;
44438;SDS011;30145;48.874;10.186;2022-09-01T09:58:35;6.17;;;4.80;;
44438;SDS011;30145;48.874;10.186;2022-09-01T10:01:06;4.77;;;4.37;;
44438;SDS011;30145;48.874;10.186;2022-09-01T10:03:44;5.50;;;5.00;;
44438;SDS011;30145;48.874;10.186;2022-09-01T10:08:56;5.30;;;4.80;;
44438;SDS011;30145;48.874;10.186;2022-09-01T10:11:29;4.90;;;4.27;;
44438;SDS011;30145;48.874;10.186;2022-09-01T10:13:59;5.60;;;5.10;;
44438;SDS011;30145;48.874;10.186;2022-09-01T10:16:28;5.60;;;5.10;;
44438;SDS011;30145;48.874;10.186;2022-09-01T10:18:58;5.80;;;5.30;;
44438;SDS011;30145;48.874;10.186;2022-09-01T10:21:33;5.27;;;4.77;;
44438;SDS011;30145;48.874;10.186;2022-09-01T10:24:12;5.90;;;5.40;;
44438;SDS011;30145;48.874;10.186;2022-09-01T10:26:58;5.60;;;5.10;;
44438;SDS011;30145;48.874;10.186;2022-09-01T10:29:28;6.33;;;5.50;;
44438;SDS011;30145;48.874;10.186;2022-09-01T10:32:00;5.87;;;5.27;;
44438;SDS011;30145;48.874;10.186;2022-09-01T10:34:46;5.70;;;5.20;;
44438;SDS011;30145;48.874;10.186;2022-09-01T10:37:14;4.87;;;4.47;;
44438;SDS011;30145;48.874;10.186;2022-09-01T10:42:38;4.90;;;4.33;;
44438;SDS011;30145;48.874;10.186;2022-09-01T10:45:18;4.93;;;4.43;;
44438;SDS011;30145;48.874;10.186;2022-09-01T10:48:05;4.27;;;3.90;;
44438;SDS011;30145;48.874;10.186;2022-09-01T11:15:35;4.50;;;4.10;;
44438;SDS011;30145;48.874;10.186;2022-09-01T11:18:07;4.60;;;4.17;;
44438;SDS011;30145;48.874;10.186;2022-09-01T11:20:39;4.80;;;4.20;;
44438;SDS011;30145;48.874;10.186;2022-09-01T11:28:45;3.87;;;3.50;;
44438;SDS011;30145;48.874;10.186;2022-09-01T11:31:30;4.00;;;3.60;;
44438;SDS011;30145;48.874;10.186;2022-09-01T11:34:09;4.03;;;3.73;;
44438;SDS011;30145;48.874;10.186;2022-09-01T11:41:54;4.70;;;4.17;;
44438;SDS011;30145;48.874;10.186;2022-09-01T11:47:12;4.97;;;4.17;;
44438;SDS011;30145;48.874;10.186;2022-09-01T11:49:49;4.60;;;4.20;;
44438;SDS011;30145;48.874;10.186;2022-09-01T11:52:22;5.97;;;4.17;;
44438;SDS011;30145;48.874;10.186;2022-09-01T11:54:51;4.73;;;4.03;;
44438;SDS011;30145;48.874;10.186;2022-09-01T11:59:55;4.57;;;4.20;;
44438;SDS011;30145;48.874;10.186;2022-09-01T12:04:57;4.93;;;4.53;;
44438;SDS011;30145;48.874;10.186;2022-09-01T12:09:51;5.57;;;5.07;;
44438;SDS011;30145;48.874;10.186;2022-09-01T12:12:35;6.70;;;5.17;;
44438;SDS011;30145;48.874;10.186;2022-09-01T12:17:36;5.70;;;5.17;;
44438;SDS011;30145;48.874;10.186;2022-09-01T12:22:57;5.77;;;5.27;;
44438;SDS011;30145;48.874;10.186;2022-09-01T12:25:34;5.67;;;5.17;;
44438;SDS011;30145;48.874;10.186;2022-09-01T12:28:02;5.87;;;5.30;;
44438;SDS011;30145;48.874;10.186;2022-09-01T12:30:31;6.30;;;5.70;;
44438;SDS011;30145;48.874;10.186;2022-09-01T12:33:09;5.93;;;4.97;;
44438;SDS011;30145;48.874;10.186;2022-09-01T12:36:18;5.07;;;4.67;;
44438;SDS011;30145;48.874;10.186;2022-09-01T12:38:47;4.90;;;4.40;;
44438;SDS011;30145;48.874;10.186;2022-09-01T12:41:31;4.83;;;4.33;;
44438;SDS011;30145;48.874;10.186;2022-09-01T12:46:57;5.17;;;4.77;;
44438;SDS011;30145;48.874;10.186;2022-09-01T12:49:37;5.17;;;4.67;;
44438;SDS011;30145;48.874;10.186;2022-09-01T12:54:46;7.50;;;4.77;;
44438;SDS011;30145;48.874;10.186;2022-09-01T12:57:23;5.63;;;5.13;;
44438;SDS011;30145;48.874;10.186;2022-09-01T13:02:39;4.70;;;4.30;;
44438;SDS011;30145;48.874;10.186;2022-09-01T13:07:56;5.70;;;5.20;;
44438;SDS011;30145;48.874;10.186;2022-09-01T13:10:25;5.13;;;4.63;;
44438;SDS011;30145;48.874;10.186;2022-09-01T13:12:54;5.23;;;4.80;;
44438;SDS011;30145;48.874;10.186;2022-09-01T13:15:23;5.37;;;4.93;;
44438;SDS011;30145;48.874;10.186;2022-09-01T13:17:54;6.67;;;4.83;;
44438;SDS011;30145;48.874;10.186;2022-09-01T13:20:21;5.30;;;4.67;;
44438;SDS011;30145;48.874;10.186;2022-09-01T13:22:48;5.17;;;4.43;;
44438;SDS011;30145;48.874;10.186;2022-09-01T13:25:17;5.40;;;4.90;;
44438;SDS011;30145;48.874;10.186;2022-09-01T13:27:46;5.73;;;5.13;;
44438;SDS011;30145;48.874;10.186;2022-09-01T13:30:14;5.03;;;4.60;;
44438;SDS011;30145;48.874;10.186;2022-09-01T13:32:43;4.77;;;4.37;;
44438;SDS011;30145;48.874;10.186;2022-09-01T13:35:31;5.00;;;4.07;;
44438;SDS011;30145;48.874;10.186;2022-09-01T13:37:58;4.40;;;4.03;;
44438;SDS011;30145;48.874;10.186;2022-09-01T13:40:25;5.50;;;4.10;;
44438;SDS011;30145;48.874;10.186;2022-09-01T13:42:52;4.17;;;3.80;;
44438;SDS011;30145;48.874;10.186;2022-09-01T13:45:21;4.60;;;4.20;;
44438;SDS011;30145;48.874;10.186;2022-09-01T13:47:51;4.43;;;3.93;;
44438;SDS011;30145;48.874;10.186;2022-09-01T13:50:39;5.90;;;4.53;;
44438;SDS011;30145;48.874;10.186;2022-09-01T13:53:26;4.67;;;4.27;;
44438;SDS011;30145;48.874;10.186;2022-09-01T13:55:53;5.37;;;4.17;;
44438;SDS011;30145;48.874;10.186;2022-09-01T13:58:20;3.93;;;3.63;;
44438;SDS011;30145;48.874;10.186;2022-09-01T14:00:47;5.13;;;4.00;;
44438;SDS011;30145;48.874;10.186;2022-09-01T14:03:17;4.13;;;3.73;;
44438;SDS011;30145;48.874;10.186;2022-09-01T14:05:47;4.67;;;4.27;;
44438;SDS011;30145;48.874;10.186;2022-09-01T14:08:15;4.70;;;4.20;;
44438;SDS011;30145;48.874;10.186;2022-09-01T14:10:46;6.27;;;3.80;;
44438;SDS011;30145;48.874;10.186;2022-09-01T14:13:16;4.47;;;4.07;;
44438;SDS011;30145;48.874;10.186;2022-09-01T14:15:45;4.80;;;4.40;;
44438;SDS011;30145;48.874;10.186;2022-09-01T14:18:13;4.57;;;4.17;;
44438;SDS011;30145;48.874;10.186;2022-09-01T14:20:42;4.47;;;4.07;;
44438;SDS011;30145;48.874;10.186;2022-09-01T14:23:11;5.13;;;4.33;;
44438;SDS011;30145;48.874;10.186;2022-09-01T14:25:45;5.60;;;3.63;;
44438;SDS011;30145;48.874;10.186;2022-09-01T14:28:14;3.97;;;3.67;;
44438;SDS011;30145;48.874;10.186;2022-09-01T14:30:42;4.40;;;4.03;;
44438;SDS011;30145;48.874;10.186;2022-09-01T14:33:10;5.23;;;3.87;;
44438;SDS011;30145;48.874;10.186;2022-09-01T14:35:38;3.87;;;3.57;;
44438;SDS011;30145;48.874;10.186;2022-09-01T14:38:07;4.30;;;2.97;;
44438;SDS011;30145;48.874;10.186;2022-09-01T14:40:35;3.83;;;3.47;;
44438;SDS011;30145;48.874;10.186;2022-09-01T14:43:04;4.13;;;3.73;;
44438;SDS011;30145;48.874;10.186;2022-09-01T14:45:35;3.17;;;2.87;;
44438;SDS011;30145;48.874;10.186;2022-09-01T14:48:03;5.23;;;3.40;;
44438;SDS011;30145;48.874;10.186;2022-09-01T14:50:31;3.30;;;3.00;;
44438;SDS011;30145;48.874;10.186;2022-09-01T14:53:00;3.77;;;3.40;;
44438;SDS011;30145;48.874;10.186;2022-09-01T14:55:28;3.40;;;3.00;;
44438;SDS011;30145;48.874;10.186;2022-09-01T14:57:56;3.33;;;3.03;;
44438;SDS011;30145;48.874;10.186;2022-09-01T15:00:25;3.47;;;3.17;;
44438;SDS011;30145;48.874;10.186;2022-09-01T15:02:53;3.60;;;3.30;;
44438;SDS011;30145;48.874;10.186;2022-09-01T15:05:21;3.33;;;3.03;;
44438;SDS011;30145;48.874;10.186;2022-09-01T15:07:48;4.13;;;3.37;;
44438;SDS011;30145;48.874;10.186;2022-09-01T15:10:18;6.23;;;3.47;;
44438;SDS011;30145;48.874;10.186;2022-09-01T15:12:47;4.83;;;3.00;;
44438;SDS011;30145;48.874;10.186;2022-09-01T15:15:15;3.57;;;3.27;;
44438;SDS011;30145;48.874;10.186;2022-09-01T15:17:42;2.93;;;2.73;;
44438;SDS011;30145;48.874;10.186;2022-09-01T15:20:11;3.10;;;2.87;;
44438;SDS011;30145;48.874;10.186;2022-09-01T15:22:56;3.17;;;2.90;;
44438;SDS011;30145;48.874;10.186;2022-09-01T15:25:24;2.30;;;2.10;;
44438;SDS011;30145;48.874;10.186;2022-09-01T15:27:51;3.67;;;2.87;;
44438;SDS011;30145;48.874;10.186;2022-09-01T15:30:18;3.13;;;2.83;;
44438;SDS011;30145;48.874;10.186;2022-09-01T15:32:48;3.57;;;3.20;;
44438;SDS011;30145;48.874;10.186;2022-09-01T15:35:17;3.13;;;2.83;;
44438;SDS011;30145;48.874;10.186;2022-09-01T15:37:45;4.13;;;3.57;;
44438;SDS011;30145;48.874;10.186;2022-09-01T15:40:13;3.80;;;3.50;;
44438;SDS011;30145;48.874;10.186;2022-09-01T15:42:41;3.70;;;3.27;;
44438;SDS011;30145;48.874;10.186;2022-09-01T15:45:10;3.63;;;3.33;;
44438;SDS011;30145;48.874;10.186;2022-09-01T15:47:39;3.87;;;3.57;;
44438;SDS011;30145;48.874;10.186;2022-09-01T15:50:09;3.67;;;3.37;;
44438;SDS011;30145;48.874;10.186;2022-09-01T15:52:51;3.73;;;3.43;;
44438;SDS011;30145;48.874;10.186;2022-09-01T15:55:24;3.60;;;3.30;;
44438;SDS011;30145;48.874;10.186;2022-09-01T15:57:53;3.50;;;3.20;;
44438;SDS011;30145;48.874;10.186;2022-09-01T16:00:22;4.10;;;3.67;;
44438;SDS011;30145;48.874;10.186;2022-09-01T16:02:50;4.03;;;3.43;;
44438;SDS011;30145;48.874;10.186;2022-09-01T16:05:17;3.90;;;3.60;;
44438;SDS011;30145;48.874;10.186;2022-09-01T16:07:44;3.50;;;3.20;;
44438;SDS011;30145;48.874;10.186;2022-09-01T16:10:11;3.23;;;2.93;;
44438;SDS011;30145;48.874;10.186;2022-09-01T16:12:40;4.53;;;3.10;;
44438;SDS011;30145;48.874;10.186;2022-09-01T16:15:10;3.10;;;2.77;;
44438;SDS011;30145;48.874;10.186;2022-09-01T16:17:52;4.60;;;2.90;;
44438;SDS011;30145;48.874;10.186;2022-09-01T16:20:24;3.53;;;3.00;;
44438;SDS011;30145;48.874;10.186;2022-09-01T16:22:57;2.97;;;2.77;;